This is the latest recevied weather packets stored in our database for station/object KC2BRB-1. If no packets are shown the sender has not sent any weather packets the latest 10 day(s).
| Time | Temp. | Humidity | Pressure | Rain* | Wind** | Luminosity | Snow |
|---|---|---|---|---|---|---|---|
| 1777932739 | 28.33° C | 50% | 1012.3 hPa | 0 mm | - | - | - |
| 1777932523 | 28.33° C | 50% | 1012.3 hPa | 0 mm | - | - | - |
| 1777932440 | 28.33° C | 50% | 1012.3 hPa | 0 mm | - | - | - |
| 1777932139 | 28.33° C | 51% | 1012.4 hPa | 0 mm | - | - | - |
| 1777931839 | 28.33° C | 51% | 1012.4 hPa | 0 mm | - | - | - |
| 1777931648 | 28.33° C | 51% | 1012.4 hPa | 0 mm | - | - | - |
| 1777931539 | 28.33° C | 51% | 1012.4 hPa | 0 mm | - | - | - |
| 1777931240 | 28.33° C | 51% | 1012.4 hPa | 0 mm | - | - | - |
| 1777930639 | 28.33° C | 50% | 1012.2 hPa | 0 mm | - | - | - |
| 1777929739 | 26.67° C | 57% | 1012.2 hPa | 0 mm | - | - | - |
| 1777929693 | 26.67° C | 57% | 1012.2 hPa | 0 mm | - | - | - |
| 1777929439 | 26.67° C | 57% | 1012.2 hPa | 0 mm | - | - | - |
| 1777929140 | 26.11° C | 55% | 1012.4 hPa | 0 mm | - | - | - |
| 1777928840 | 26.11° C | 55% | 1012.4 hPa | 0 mm | - | - | - |
| 1777927040 | 27.22° C | 52% | 1012.5 hPa | 0 mm | - | - | - |
| 1777926140 | 28.33° C | 49% | 1012.5 hPa | 0 mm | - | - | - |
| 1777925840 | 28.33° C | 49% | 1012.5 hPa | 0 mm | - | - | - |
| 1777923140 | 28.89° C | 46% | 1013 hPa | 0 mm | - | - | - |
| 1777922540 | 28.89° C | 43% | 1013 hPa | 0 mm | - | - | - |
| 1777922240 | 28.89° C | 43% | 1013 hPa | 0 mm | - | - | - |
| 1777921940 | 28.89° C | 46% | 1013.4 hPa | 0 mm | - | - | - |
| 1777921641 | 28.89° C | 46% | 1013.4 hPa | 0 mm | - | - | - |
| 1777921040 | 29.44° C | 43% | 1013.6 hPa | 0 mm | - | - | - |
| 1777920140 | 28.33° C | 44% | 1013.8 hPa | 0 mm | - | - | - |
| 1777919840 | 28.33° C | 44% | 1013.8 hPa | 0 mm | - | - | - |
* Rain latest hour (hover to see other rain measurements)
** Current wind speed in m/s (hover to see current wind gust speed)